sensor_id;sensor_type;location;lat;lon;timestamp;P1;durP1;ratioP1;P2;durP2;ratioP2
52534;SDS011;38443;53.164;5.802;2023-03-14T00:00:55;17.65;;;5.50;;
52534;SDS011;38443;53.164;5.802;2023-03-14T00:05:46;17.90;;;5.30;;
52534;SDS011;38443;53.164;5.802;2023-03-14T00:08:11;16.33;;;4.72;;
52534;SDS011;38443;53.164;5.802;2023-03-14T00:10:37;13.77;;;5.03;;
52534;SDS011;38443;53.164;5.802;2023-03-14T00:13:03;17.80;;;4.40;;
52534;SDS011;38443;53.164;5.802;2023-03-14T00:15:29;14.73;;;4.50;;
52534;SDS011;38443;53.164;5.802;2023-03-14T00:20:19;17.83;;;4.10;;
52534;SDS011;38443;53.164;5.802;2023-03-14T00:25:10;12.70;;;4.27;;
52534;SDS011;38443;53.164;5.802;2023-03-14T00:27:37;13.48;;;3.95;;
52534;SDS011;38443;53.164;5.802;2023-03-14T00:32:28;18.42;;;4.32;;
52534;SDS011;38443;53.164;5.802;2023-03-14T00:37:19;19.47;;;4.33;;
52534;SDS011;38443;53.164;5.802;2023-03-14T00:42:10;15.77;;;4.50;;
52534;SDS011;38443;53.164;5.802;2023-03-14T00:47:01;23.25;;;5.18;;
52534;SDS011;38443;53.164;5.802;2023-03-14T00:51:51;17.42;;;3.72;;
52534;SDS011;38443;53.164;5.802;2023-03-14T00:56:42;15.90;;;4.47;;
52534;SDS011;38443;53.164;5.802;2023-03-14T01:01:33;13.93;;;4.78;;
52534;SDS011;38443;53.164;5.802;2023-03-14T01:06:25;16.08;;;4.00;;
52534;SDS011;38443;53.164;5.802;2023-03-14T01:08:52;18.38;;;6.10;;
52534;SDS011;38443;53.164;5.802;2023-03-14T01:11:19;7.85;;;3.88;;
52534;SDS011;38443;53.164;5.802;2023-03-14T01:13:49;17.27;;;4.40;;
52534;SDS011;38443;53.164;5.802;2023-03-14T01:18:40;13.35;;;3.33;;
52534;SDS011;38443;53.164;5.802;2023-03-14T01:23:51;9.70;;;2.72;;
52534;SDS011;38443;53.164;5.802;2023-03-14T01:26:19;12.32;;;3.85;;
52534;SDS011;38443;53.164;5.802;2023-03-14T01:28:46;14.48;;;3.80;;
52534;SDS011;38443;53.164;5.802;2023-03-14T01:31:12;16.55;;;3.80;;
52534;SDS011;38443;53.164;5.802;2023-03-14T01:36:04;19.05;;;5.65;;
52534;SDS011;38443;53.164;5.802;2023-03-14T01:38:30;12.80;;;5.53;;
52534;SDS011;38443;53.164;5.802;2023-03-14T01:40:57;18.45;;;4.72;;
52534;SDS011;38443;53.164;5.802;2023-03-14T01:51:08;13.30;;;4.10;;
52534;SDS011;38443;53.164;5.802;2023-03-14T01:53:38;18.70;;;4.55;;
52534;SDS011;38443;53.164;5.802;2023-03-14T01:56:05;16.63;;;4.30;;
52534;SDS011;38443;53.164;5.802;2023-03-14T01:58:32;25.02;;;4.93;;
52534;SDS011;38443;53.164;5.802;2023-03-14T02:00:59;17.35;;;4.28;;
52534;SDS011;38443;53.164;5.802;2023-03-14T02:03:27;19.63;;;4.40;;
52534;SDS011;38443;53.164;5.802;2023-03-14T02:05:55;16.95;;;5.00;;
52534;SDS011;38443;53.164;5.802;2023-03-14T02:08:25;18.73;;;4.53;;
52534;SDS011;38443;53.164;5.802;2023-03-14T02:10:52;14.75;;;4.30;;
52534;SDS011;38443;53.164;5.802;2023-03-14T02:15:45;16.60;;;6.05;;
52534;SDS011;38443;53.164;5.802;2023-03-14T02:23:27;24.05;;;5.00;;
52534;SDS011;38443;53.164;5.802;2023-03-14T02:26:03;15.55;;;5.00;;
52534;SDS011;38443;53.164;5.802;2023-03-14T02:28:33;18.70;;;4.57;;
52534;SDS011;38443;53.164;5.802;2023-03-14T02:33:24;14.15;;;3.65;;
52534;SDS011;38443;53.164;5.802;2023-03-14T02:41:22;15.65;;;3.90;;
52534;SDS011;38443;53.164;5.802;2023-03-14T02:46:13;16.57;;;4.03;;
52534;SDS011;38443;53.164;5.802;2023-03-14T02:48:43;18.60;;;4.78;;
52534;SDS011;38443;53.164;5.802;2023-03-14T02:51:16;19.90;;;4.93;;
52534;SDS011;38443;53.164;5.802;2023-03-14T02:56:08;16.17;;;4.13;;
52534;SDS011;38443;53.164;5.802;2023-03-14T02:58:34;24.58;;;5.07;;
52534;SDS011;38443;53.164;5.802;2023-03-14T03:01:01;19.73;;;5.40;;
52534;SDS011;38443;53.164;5.802;2023-03-14T03:05:52;16.70;;;5.33;;
52534;SDS011;38443;53.164;5.802;2023-03-14T03:08:19;20.10;;;5.03;;
52534;SDS011;38443;53.164;5.802;2023-03-14T03:10:45;22.50;;;5.18;;
52534;SDS011;38443;53.164;5.802;2023-03-14T03:15:36;22.08;;;5.57;;
52534;SDS011;38443;53.164;5.802;2023-03-14T03:20:27;17.70;;;5.22;;
52534;SDS011;38443;53.164;5.802;2023-03-14T03:25:18;29.63;;;5.70;;
52534;SDS011;38443;53.164;5.802;2023-03-14T03:30:08;30.50;;;6.00;;
52534;SDS011;38443;53.164;5.802;2023-03-14T03:34:59;18.77;;;5.70;;
52534;SDS011;38443;53.164;5.802;2023-03-14T03:39:50;26.40;;;6.87;;
52534;SDS011;38443;53.164;5.802;2023-03-14T03:42:16;24.20;;;6.13;;
52534;SDS011;38443;53.164;5.802;2023-03-14T03:47:07;17.23;;;4.70;;
52534;SDS011;38443;53.164;5.802;2023-03-14T03:51:58;31.53;;;5.83;;
52534;SDS011;38443;53.164;5.802;2023-03-14T03:56:49;29.80;;;6.60;;
52534;SDS011;38443;53.164;5.802;2023-03-14T03:59:14;28.92;;;6.68;;
52534;SDS011;38443;53.164;5.802;2023-03-14T04:01:40;31.33;;;5.90;;
52534;SDS011;38443;53.164;5.802;2023-03-14T04:04:06;23.60;;;6.28;;
52534;SDS011;38443;53.164;5.802;2023-03-14T04:08:57;16.65;;;4.90;;
52534;SDS011;38443;53.164;5.802;2023-03-14T04:13:47;32.15;;;8.52;;
52534;SDS011;38443;53.164;5.802;2023-03-14T04:18:40;18.70;;;6.25;;
52534;SDS011;38443;53.164;5.802;2023-03-14T04:23:31;20.58;;;5.45;;
52534;SDS011;38443;53.164;5.802;2023-03-14T04:28:21;20.23;;;5.80;;
52534;SDS011;38443;53.164;5.802;2023-03-14T04:33:12;18.15;;;5.47;;
52534;SDS011;38443;53.164;5.802;2023-03-14T04:35:41;25.88;;;5.72;;
52534;SDS011;38443;53.164;5.802;2023-03-14T04:40:32;19.57;;;5.63;;
52534;SDS011;38443;53.164;5.802;2023-03-14T04:45:22;20.13;;;5.33;;
52534;SDS011;38443;53.164;5.802;2023-03-14T04:50:13;20.97;;;5.13;;
52534;SDS011;38443;53.164;5.802;2023-03-14T04:55:04;17.00;;;5.43;;
52534;SDS011;38443;53.164;5.802;2023-03-14T04:59:55;18.43;;;5.03;;
52534;SDS011;38443;53.164;5.802;2023-03-14T05:04:45;15.60;;;4.27;;
52534;SDS011;38443;53.164;5.802;2023-03-14T05:09:36;11.43;;;4.30;;
52534;SDS011;38443;53.164;5.802;2023-03-14T05:14:26;12.93;;;5.15;;
52534;SDS011;38443;53.164;5.802;2023-03-14T05:16:52;10.95;;;4.28;;
52534;SDS011;38443;53.164;5.802;2023-03-14T05:21:42;12.17;;;4.47;;
52534;SDS011;38443;53.164;5.802;2023-03-14T05:26:33;7.80;;;4.67;;
52534;SDS011;38443;53.164;5.802;2023-03-14T05:31:23;17.30;;;6.13;;
52534;SDS011;38443;53.164;5.802;2023-03-14T05:36:14;16.20;;;5.93;;
52534;SDS011;38443;53.164;5.802;2023-03-14T05:41:04;10.47;;;4.13;;
52534;SDS011;38443;53.164;5.802;2023-03-14T05:45:55;12.80;;;4.32;;
52534;SDS011;38443;53.164;5.802;2023-03-14T05:50:46;11.48;;;3.00;;
52534;SDS011;38443;53.164;5.802;2023-03-14T05:55:37;5.03;;;2.10;;
52534;SDS011;38443;53.164;5.802;2023-03-14T06:00:27;5.68;;;2.10;;
52534;SDS011;38443;53.164;5.802;2023-03-14T06:05:18;7.73;;;2.47;;
52534;SDS011;38443;53.164;5.802;2023-03-14T06:10:09;6.28;;;2.53;;
52534;SDS011;38443;53.164;5.802;2023-03-14T06:15:00;10.37;;;2.63;;
52534;SDS011;38443;53.164;5.802;2023-03-14T06:19:50;9.40;;;2.00;;
52534;SDS011;38443;53.164;5.802;2023-03-14T06:24:41;14.48;;;3.45;;
52534;SDS011;38443;53.164;5.802;2023-03-14T06:29:31;7.13;;;2.53;;
52534;SDS011;38443;53.164;5.802;2023-03-14T06:34:22;1.75;;;0.88;;
52534;SDS011;38443;53.164;5.802;2023-03-14T06:39:13;8.43;;;1.87;;
52534;SDS011;38443;53.164;5.802;2023-03-14T06:44:03;7.40;;;1.38;;
52534;SDS011;38443;53.164;5.802;2023-03-14T06:48:54;3.03;;;1.20;;
52534;SDS011;38443;53.164;5.802;2023-03-14T06:53:45;8.63;;;2.15;;
52534;SDS011;38443;53.164;5.802;2023-03-14T06:58:35;2.90;;;1.60;;
52534;SDS011;38443;53.164;5.802;2023-03-14T07:03:26;4.38;;;0.98;;
52534;SDS011;38443;53.164;5.802;2023-03-14T07:08:17;4.20;;;1.17;;
52534;SDS011;38443;53.164;5.802;2023-03-14T07:13:08;9.18;;;2.08;;
52534;SDS011;38443;53.164;5.802;2023-03-14T07:17:58;3.05;;;1.63;;
52534;SDS011;38443;53.164;5.802;2023-03-14T07:22:49;9.82;;;1.73;;
52534;SDS011;38443;53.164;5.802;2023-03-14T07:27:42;4.35;;;1.67;;
52534;SDS011;38443;53.164;5.802;2023-03-14T07:30:09;4.72;;;1.90;;
52534;SDS011;38443;53.164;5.802;2023-03-14T07:35:00;2.90;;;1.50;;
52534;SDS011;38443;53.164;5.802;2023-03-14T07:39:50;8.00;;;3.97;;
52534;SDS011;38443;53.164;5.802;2023-03-14T07:44:41;8.50;;;2.20;;
52534;SDS011;38443;53.164;5.802;2023-03-14T07:49:31;11.90;;;3.50;;
52534;SDS011;38443;53.164;5.802;2023-03-14T07:54:23;14.32;;;2.50;;
52534;SDS011;38443;53.164;5.802;2023-03-14T07:56:49;8.00;;;2.67;;
52534;SDS011;38443;53.164;5.802;2023-03-14T08:01:40;8.37;;;2.93;;
52534;SDS011;38443;53.164;5.802;2023-03-14T08:06:30;11.13;;;2.80;;
52534;SDS011;38443;53.164;5.802;2023-03-14T08:11:21;10.32;;;4.15;;
52534;SDS011;38443;53.164;5.802;2023-03-14T08:18:40;13.27;;;3.05;;
52534;SDS011;38443;53.164;5.802;2023-03-14T08:23:31;17.40;;;2.78;;
52534;SDS011;38443;53.164;5.802;2023-03-14T08:28:21;11.18;;;2.45;;
52534;SDS011;38443;53.164;5.802;2023-03-14T08:33:12;14.80;;;3.75;;
52534;SDS011;38443;53.164;5.802;2023-03-14T08:38:03;9.45;;;3.85;;
52534;SDS011;38443;53.164;5.802;2023-03-14T08:42:54;10.23;;;3.47;;
52534;SDS011;38443;53.164;5.802;2023-03-14T08:47:44;12.27;;;3.63;;
52534;SDS011;38443;53.164;5.802;2023-03-14T08:52:35;15.00;;;3.35;;
52534;SDS011;38443;53.164;5.802;2023-03-14T08:55:02;17.08;;;3.90;;
52534;SDS011;38443;53.164;5.802;2023-03-14T08:57:28;11.93;;;3.10;;
52534;SDS011;38443;53.164;5.802;2023-03-14T09:02:20;11.85;;;4.10;;
52534;SDS011;38443;53.164;5.802;2023-03-14T09:07:11;7.78;;;2.45;;
52534;SDS011;38443;53.164;5.802;2023-03-14T09:12:02;10.63;;;2.70;;
52534;SDS011;38443;53.164;5.802;2023-03-14T09:16:52;15.70;;;3.22;;
52534;SDS011;38443;53.164;5.802;2023-03-14T09:21:43;14.17;;;5.00;;
52534;SDS011;38443;53.164;5.802;2023-03-14T09:26:33;11.33;;;3.13;;
52534;SDS011;38443;53.164;5.802;2023-03-14T09:31:24;9.68;;;2.88;;
52534;SDS011;38443;53.164;5.802;2023-03-14T09:36:15;10.32;;;2.70;;
52534;SDS011;38443;53.164;5.802;2023-03-14T09:41:16;6.80;;;2.40;;
52534;SDS011;38443;53.164;5.802;2023-03-14T09:43:46;10.77;;;2.50;;
52534;SDS011;38443;53.164;5.802;2023-03-14T09:46:15;13.15;;;3.40;;
52534;SDS011;38443;53.164;5.802;2023-03-14T09:51:15;5.13;;;2.07;;
52534;SDS011;38443;53.164;5.802;2023-03-14T09:53:43;12.25;;;3.20;;
52534;SDS011;38443;53.164;5.802;2023-03-14T09:56:12;13.02;;;3.03;;
52534;SDS011;38443;53.164;5.802;2023-03-14T09:58:41;12.93;;;3.35;;
52534;SDS011;38443;53.164;5.802;2023-03-14T10:01:10;11.88;;;2.83;;
52534;SDS011;38443;53.164;5.802;2023-03-14T10:03:39;8.40;;;2.60;;
52534;SDS011;38443;53.164;5.802;2023-03-14T10:06:13;16.30;;;3.53;;
52534;SDS011;38443;53.164;5.802;2023-03-14T10:08:41;11.73;;;3.63;;
52534;SDS011;38443;53.164;5.802;2023-03-14T10:11:10;7.38;;;2.10;;
52534;SDS011;38443;53.164;5.802;2023-03-14T10:13:47;8.10;;;2.78;;
52534;SDS011;38443;53.164;5.802;2023-03-14T10:16:34;9.40;;;2.78;;
52534;SDS011;38443;53.164;5.802;2023-03-14T10:19:06;7.40;;;3.55;;
52534;SDS011;38443;53.164;5.802;2023-03-14T10:21:36;10.65;;;2.47;;
52534;SDS011;38443;53.164;5.802;2023-03-14T10:24:09;8.82;;;2.42;;
52534;SDS011;38443;53.164;5.802;2023-03-14T10:26:34;6.38;;;1.90;;
52534;SDS011;38443;53.164;5.802;2023-03-14T10:31:27;6.07;;;1.85;;
52534;SDS011;38443;53.164;5.802;2023-03-14T10:36:29;7.63;;;3.08;;
52534;SDS011;38443;53.164;5.802;2023-03-14T10:38:57;6.80;;;2.20;;
52534;SDS011;38443;53.164;5.802;2023-03-14T10:41:47;9.90;;;2.40;;
52534;SDS011;38443;53.164;5.802;2023-03-14T10:44:14;10.05;;;2.25;;
52534;SDS011;38443;53.164;5.802;2023-03-14T10:46:44;8.45;;;2.88;;
52534;SDS011;38443;53.164;5.802;2023-03-14T10:51:48;7.40;;;1.65;;
52534;SDS011;38443;53.164;5.802;2023-03-14T10:56:43;4.53;;;1.45;;
52534;SDS011;38443;53.164;5.802;2023-03-14T11:07:14;5.28;;;1.80;;
52534;SDS011;38443;53.164;5.802;2023-03-14T11:09:45;3.20;;;1.55;;
52534;SDS011;38443;53.164;5.802;2023-03-14T11:15:41;7.07;;;2.22;;
52534;SDS011;38443;53.164;5.802;2023-03-14T11:23:18;2.17;;;1.27;;
52534;SDS011;38443;53.164;5.802;2023-03-14T11:26:49;6.65;;;2.03;;
52534;SDS011;38443;53.164;5.802;2023-03-14T11:29:08;4.15;;;2.08;;
52534;SDS011;38443;53.164;5.802;2023-03-14T11:31:40;5.72;;;1.70;;
52534;SDS011;38443;53.164;5.802;2023-03-14T11:37:12;11.10;;;2.45;;
52534;SDS011;38443;53.164;5.802;2023-03-14T11:42:18;9.77;;;2.10;;
52534;SDS011;38443;53.164;5.802;2023-03-14T11:44:48;5.30;;;2.13;;
52534;SDS011;38443;53.164;5.802;2023-03-14T11:50:04;5.82;;;2.53;;
52534;SDS011;38443;53.164;5.802;2023-03-14T11:52:41;6.32;;;2.05;;
52534;SDS011;38443;53.164;5.802;2023-03-14T11:55:20;11.18;;;2.35;;
52534;SDS011;38443;53.164;5.802;2023-03-14T11:57:51;6.85;;;1.83;;
52534;SDS011;38443;53.164;5.802;2023-03-14T12:00:19;5.35;;;1.85;;
52534;SDS011;38443;53.164;5.802;2023-03-14T12:03:01;4.93;;;1.95;;
52534;SDS011;38443;53.164;5.802;2023-03-14T12:05:50;6.93;;;2.13;;
52534;SDS011;38443;53.164;5.802;2023-03-14T12:08:30;7.80;;;2.10;;
52534;SDS011;38443;53.164;5.802;2023-03-14T12:11:04;6.60;;;2.28;;
52534;SDS011;38443;53.164;5.802;2023-03-14T12:13:38;8.77;;;2.50;;
52534;SDS011;38443;53.164;5.802;2023-03-14T12:16:31;4.97;;;2.25;;
52534;SDS011;38443;53.164;5.802;2023-03-14T12:18:51;8.55;;;2.30;;
52534;SDS011;38443;53.164;5.802;2023-03-14T12:21:17;5.20;;;2.08;;
52534;SDS011;38443;53.164;5.802;2023-03-14T12:26:18;7.40;;;1.67;;
52534;SDS011;38443;53.164;5.802;2023-03-14T12:28:52;4.32;;;1.65;;
52534;SDS011;38443;53.164;5.802;2023-03-14T12:31:37;2.67;;;1.67;;
52534;SDS011;38443;53.164;5.802;2023-03-14T12:42:01;7.53;;;2.20;;
52534;SDS011;38443;53.164;5.802;2023-03-14T12:44:39;3.17;;;1.65;;
52534;SDS011;38443;53.164;5.802;2023-03-14T12:49:44;7.75;;;1.92;;
52534;SDS011;38443;53.164;5.802;2023-03-14T12:55:19;2.30;;;1.55;;
52534;SDS011;38443;53.164;5.802;2023-03-14T12:57:57;5.78;;;1.83;;
52534;SDS011;38443;53.164;5.802;2023-03-14T13:00:32;5.72;;;1.73;;
52534;SDS011;38443;53.164;5.802;2023-03-14T13:03:12;4.50;;;2.40;;
52534;SDS011;38443;53.164;5.802;2023-03-14T13:05:40;8.27;;;1.77;;
52534;SDS011;38443;53.164;5.802;2023-03-14T13:08:31;6.53;;;1.83;;
52534;SDS011;38443;53.164;5.802;2023-03-14T13:11:06;3.85;;;2.28;;
52534;SDS011;38443;53.164;5.802;2023-03-14T13:13:35;4.78;;;1.70;;
52534;SDS011;38443;53.164;5.802;2023-03-14T13:16:05;5.80;;;1.85;;
52534;SDS011;38443;53.164;5.802;2023-03-14T13:23:56;4.97;;;1.48;;
52534;SDS011;38443;53.164;5.802;2023-03-14T13:26:40;4.07;;;2.08;;
52534;SDS011;38443;53.164;5.802;2023-03-14T13:29:20;8.35;;;2.05;;
52534;SDS011;38443;53.164;5.802;2023-03-14T13:31:49;4.05;;;1.88;;
52534;SDS011;38443;53.164;5.802;2023-03-14T13:34:17;6.03;;;1.90;;
52534;SDS011;38443;53.164;5.802;2023-03-14T13:36:43;11.27;;;2.05;;
52534;SDS011;38443;53.164;5.802;2023-03-14T13:41:44;6.57;;;1.73;;
52534;SDS011;38443;53.164;5.802;2023-03-14T13:44:15;8.07;;;2.53;;
52534;SDS011;38443;53.164;5.802;2023-03-14T13:46:45;5.53;;;1.67;;
52534;SDS011;38443;53.164;5.802;2023-03-14T13:51:48;5.15;;;2.00;;
52534;SDS011;38443;53.164;5.802;2023-03-14T13:56:43;2.75;;;1.40;;
52534;SDS011;38443;53.164;5.802;2023-03-14T14:01:50;4.25;;;1.85;;
52534;SDS011;38443;53.164;5.802;2023-03-14T14:04:18;7.78;;;2.10;;
52534;SDS011;38443;53.164;5.802;2023-03-14T14:06:50;4.38;;;2.00;;
52534;SDS011;38443;53.164;5.802;2023-03-14T14:09:20;7.28;;;2.05;;
52534;SDS011;38443;53.164;5.802;2023-03-14T14:11:51;7.10;;;1.60;;
52534;SDS011;38443;53.164;5.802;2023-03-14T14:14:23;5.35;;;2.00;;
52534;SDS011;38443;53.164;5.802;2023-03-14T14:16:55;8.07;;;2.30;;
52534;SDS011;38443;53.164;5.802;2023-03-14T14:19:23;6.03;;;2.00;;
52534;SDS011;38443;53.164;5.802;2023-03-14T14:21:54;5.72;;;1.92;;
52534;SDS011;38443;53.164;5.802;2023-03-14T14:29:42;7.88;;;2.80;;
52534;SDS011;38443;53.164;5.802;2023-03-14T14:37:14;7.18;;;2.20;;
52534;SDS011;38443;53.164;5.802;2023-03-14T14:39:43;8.13;;;2.25;;
52534;SDS011;38443;53.164;5.802;2023-03-14T14:44:39;5.38;;;1.85;;
52534;SDS011;38443;53.164;5.802;2023-03-14T14:49:31;7.50;;;2.40;;
52534;SDS011;38443;53.164;5.802;2023-03-14T14:52:13;6.15;;;1.75;;
52534;SDS011;38443;53.164;5.802;2023-03-14T14:54:47;7.25;;;2.15;;
52534;SDS011;38443;53.164;5.802;2023-03-14T14:57:23;9.02;;;2.42;;
52534;SDS011;38443;53.164;5.802;2023-03-14T14:59:54;5.50;;;2.17;;
52534;SDS011;38443;53.164;5.802;2023-03-14T15:02:29;8.40;;;2.60;;
52534;SDS011;38443;53.164;5.802;2023-03-14T15:04:57;5.20;;;2.07;;
52534;SDS011;38443;53.164;5.802;2023-03-14T15:09:47;8.52;;;1.95;;
52534;SDS011;38443;53.164;5.802;2023-03-14T15:14:38;7.18;;;1.85;;
52534;SDS011;38443;53.164;5.802;2023-03-14T15:19:28;3.50;;;1.77;;
52534;SDS011;38443;53.164;5.802;2023-03-14T15:21:57;7.85;;;2.25;;
52534;SDS011;38443;53.164;5.802;2023-03-14T15:26:48;11.07;;;2.88;;
52534;SDS011;38443;53.164;5.802;2023-03-14T15:31:39;11.57;;;3.25;;
52534;SDS011;38443;53.164;5.802;2023-03-14T15:36:31;8.13;;;2.80;;
52534;SDS011;38443;53.164;5.802;2023-03-14T15:38:59;8.50;;;2.45;;
52534;SDS011;38443;53.164;5.802;2023-03-14T15:43:51;8.35;;;3.92;;
52534;SDS011;38443;53.164;5.802;2023-03-14T15:46:19;9.55;;;2.95;;
52534;SDS011;38443;53.164;5.802;2023-03-14T15:48:47;8.25;;;2.38;;
52534;SDS011;38443;53.164;5.802;2023-03-14T15:51:16;4.30;;;2.00;;
52534;SDS011;38443;53.164;5.802;2023-03-14T15:56:12;5.63;;;1.65;;
52534;SDS011;38443;53.164;5.802;2023-03-14T15:58:39;4.50;;;2.72;;
52534;SDS011;38443;53.164;5.802;2023-03-14T16:01:06;13.15;;;2.58;;
52534;SDS011;38443;53.164;5.802;2023-03-14T16:03:36;7.13;;;1.75;;
52534;SDS011;38443;53.164;5.802;2023-03-14T16:08:26;3.78;;;1.75;;
52534;SDS011;38443;53.164;5.802;2023-03-14T16:10:54;6.50;;;2.00;;
52534;SDS011;38443;53.164;5.802;2023-03-14T16:15:52;7.00;;;2.42;;
52534;SDS011;38443;53.164;5.802;2023-03-14T16:18:19;13.23;;;2.35;;
52534;SDS011;38443;53.164;5.802;2023-03-14T16:23:16;10.73;;;2.67;;
52534;SDS011;38443;53.164;5.802;2023-03-14T16:25:43;6.15;;;2.80;;
52534;SDS011;38443;53.164;5.802;2023-03-14T16:28:09;6.43;;;2.42;;
52534;SDS011;38443;53.164;5.802;2023-03-14T16:32:59;4.33;;;2.00;;
52534;SDS011;38443;53.164;5.802;2023-03-14T16:35:26;7.55;;;1.98;;
52534;SDS011;38443;53.164;5.802;2023-03-14T16:40:16;4.47;;;2.00;;
52534;SDS011;38443;53.164;5.802;2023-03-14T16:45:07;5.60;;;2.00;;
52534;SDS011;38443;53.164;5.802;2023-03-14T16:47:33;6.82;;;2.08;;
52534;SDS011;38443;53.164;5.802;2023-03-14T16:52:26;6.68;;;2.88;;
52534;SDS011;38443;53.164;5.802;2023-03-14T16:57:17;7.90;;;2.55;;
52534;SDS011;38443;53.164;5.802;2023-03-14T17:02:08;8.50;;;2.10;;
52534;SDS011;38443;53.164;5.802;2023-03-14T17:06:59;8.13;;;2.23;;
52534;SDS011;38443;53.164;5.802;2023-03-14T17:11:50;4.97;;;2.10;;
52534;SDS011;38443;53.164;5.802;2023-03-14T17:16:40;9.55;;;2.50;;
52534;SDS011;38443;53.164;5.802;2023-03-14T17:21:31;12.40;;;2.47;;
52534;SDS011;38443;53.164;5.802;2023-03-14T17:26:21;4.70;;;2.53;;
52534;SDS011;38443;53.164;5.802;2023-03-14T17:31:13;5.47;;;1.85;;
52534;SDS011;38443;53.164;5.802;2023-03-14T17:33:40;7.65;;;2.50;;
52534;SDS011;38443;53.164;5.802;2023-03-14T17:38:35;4.93;;;2.83;;
52534;SDS011;38443;53.164;5.802;2023-03-14T17:41:01;6.82;;;2.85;;
52534;SDS011;38443;53.164;5.802;2023-03-14T17:45:59;9.35;;;2.75;;
52534;SDS011;38443;53.164;5.802;2023-03-14T17:48:27;11.23;;;2.72;;
52534;SDS011;38443;53.164;5.802;2023-03-14T17:53:18;6.88;;;2.38;;
52534;SDS011;38443;53.164;5.802;2023-03-14T17:58:09;12.68;;;2.70;;
52534;SDS011;38443;53.164;5.802;2023-03-14T18:00:36;7.90;;;2.60;;
52534;SDS011;38443;53.164;5.802;2023-03-14T18:05:27;5.25;;;3.38;;
52534;SDS011;38443;53.164;5.802;2023-03-14T18:10:18;10.02;;;2.60;;
52534;SDS011;38443;53.164;5.802;2023-03-14T18:12:45;7.13;;;2.08;;
52534;SDS011;38443;53.164;5.802;2023-03-14T18:17:37;7.72;;;2.22;;
52534;SDS011;38443;53.164;5.802;2023-03-14T18:20:04;4.07;;;2.53;;
52534;SDS011;38443;53.164;5.802;2023-03-14T18:22:33;9.90;;;1.95;;
52534;SDS011;38443;53.164;5.802;2023-03-14T18:27:24;11.25;;;2.70;;
52534;SDS011;38443;53.164;5.802;2023-03-14T18:32:15;8.27;;;2.53;;
52534;SDS011;38443;53.164;5.802;2023-03-14T18:37:07;10.18;;;2.63;;
52534;SDS011;38443;53.164;5.802;2023-03-14T18:41:57;6.63;;;2.70;;
52534;SDS011;38443;53.164;5.802;2023-03-14T18:46:48;8.37;;;2.70;;
52534;SDS011;38443;53.164;5.802;2023-03-14T18:51:39;9.45;;;2.45;;
52534;SDS011;38443;53.164;5.802;2023-03-14T18:56:30;6.20;;;2.33;;
52534;SDS011;38443;53.164;5.802;2023-03-14T19:01:21;6.65;;;2.38;;
52534;SDS011;38443;53.164;5.802;2023-03-14T19:06:12;7.55;;;2.50;;
52534;SDS011;38443;53.164;5.802;2023-03-14T19:11:06;7.60;;;2.20;;
52534;SDS011;38443;53.164;5.802;2023-03-14T19:13:33;9.43;;;2.40;;
52534;SDS011;38443;53.164;5.802;2023-03-14T19:15:59;8.57;;;2.35;;
52534;SDS011;38443;53.164;5.802;2023-03-14T19:18:25;12.18;;;2.30;;
52534;SDS011;38443;53.164;5.802;2023-03-14T19:23:33;6.55;;;2.10;;
52534;SDS011;38443;53.164;5.802;2023-03-14T19:26:00;7.15;;;2.25;;
52534;SDS011;38443;53.164;5.802;2023-03-14T19:28:28;3.75;;;1.98;;
52534;SDS011;38443;53.164;5.802;2023-03-14T19:30:56;5.50;;;2.13;;
52534;SDS011;38443;53.164;5.802;2023-03-14T19:33:22;3.00;;;1.60;;
52534;SDS011;38443;53.164;5.802;2023-03-14T19:38:13;5.55;;;2.08;;
52534;SDS011;38443;53.164;5.802;2023-03-14T19:43:05;5.70;;;2.60;;
52534;SDS011;38443;53.164;5.802;2023-03-14T19:47:57;9.38;;;3.00;;
52534;SDS011;38443;53.164;5.802;2023-03-14T19:50:24;8.70;;;1.80;;
52534;SDS011;38443;53.164;5.802;2023-03-14T19:52:50;6.35;;;2.53;;
52534;SDS011;38443;53.164;5.802;2023-03-14T19:55:19;5.00;;;1.90;;
52534;SDS011;38443;53.164;5.802;2023-03-14T19:57:46;7.97;;;2.20;;
52534;SDS011;38443;53.164;5.802;2023-03-14T20:00:12;10.77;;;2.22;;
52534;SDS011;38443;53.164;5.802;2023-03-14T20:02:44;6.15;;;1.92;;
52534;SDS011;38443;53.164;5.802;2023-03-14T20:05:11;7.40;;;2.30;;
52534;SDS011;38443;53.164;5.802;2023-03-14T20:07:37;5.18;;;1.77;;
52534;SDS011;38443;53.164;5.802;2023-03-14T20:10:04;9.10;;;2.67;;
52534;SDS011;38443;53.164;5.802;2023-03-14T20:12:30;6.40;;;2.25;;
52534;SDS011;38443;53.164;5.802;2023-03-14T20:17:22;7.38;;;2.15;;
52534;SDS011;38443;53.164;5.802;2023-03-14T20:22:12;10.93;;;3.07;;
52534;SDS011;38443;53.164;5.802;2023-03-14T20:27:03;4.47;;;2.20;;
52534;SDS011;38443;53.164;5.802;2023-03-14T20:31:54;4.37;;;2.33;;
52534;SDS011;38443;53.164;5.802;2023-03-14T20:36:45;6.18;;;2.30;;
52534;SDS011;38443;53.164;5.802;2023-03-14T20:39:13;11.95;;;2.92;;
52534;SDS011;38443;53.164;5.802;2023-03-14T20:44:06;6.90;;;3.03;;
52534;SDS011;38443;53.164;5.802;2023-03-14T20:46:35;5.63;;;2.65;;
52534;SDS011;38443;53.164;5.802;2023-03-14T20:51:26;9.38;;;2.38;;
52534;SDS011;38443;53.164;5.802;2023-03-14T20:56:17;5.63;;;2.30;;
52534;SDS011;38443;53.164;5.802;2023-03-14T21:01:09;5.82;;;1.77;;
52534;SDS011;38443;53.164;5.802;2023-03-14T21:06:00;8.68;;;1.75;;
52534;SDS011;38443;53.164;5.802;2023-03-14T21:10:52;2.22;;;1.35;;
52534;SDS011;38443;53.164;5.802;2023-03-14T21:13:19;3.45;;;1.98;;
52534;SDS011;38443;53.164;5.802;2023-03-14T21:18:10;1.52;;;1.20;;
52534;SDS011;38443;53.164;5.802;2023-03-14T21:23:02;8.38;;;2.20;;
52534;SDS011;38443;53.164;5.802;2023-03-14T21:25:28;2.00;;;1.30;;
52534;SDS011;38443;53.164;5.802;2023-03-14T21:27:54;3.85;;;2.13;;
52534;SDS011;38443;53.164;5.802;2023-03-14T21:32:45;4.43;;;2.00;;
52534;SDS011;38443;53.164;5.802;2023-03-14T21:37:36;4.17;;;1.87;;
52534;SDS011;38443;53.164;5.802;2023-03-14T21:40:01;4.50;;;1.67;;
52534;SDS011;38443;53.164;5.802;2023-03-14T21:42:27;6.80;;;1.85;;
52534;SDS011;38443;53.164;5.802;2023-03-14T21:47:18;4.47;;;1.70;;
52534;SDS011;38443;53.164;5.802;2023-03-14T21:49:47;5.57;;;2.05;;
52534;SDS011;38443;53.164;5.802;2023-03-14T21:52:14;8.25;;;2.10;;
52534;SDS011;38443;53.164;5.802;2023-03-14T21:57:07;6.40;;;1.63;;
52534;SDS011;38443;53.164;5.802;2023-03-14T21:59:33;5.80;;;1.90;;
52534;SDS011;38443;53.164;5.802;2023-03-14T22:02:01;3.47;;;1.70;;
52534;SDS011;38443;53.164;5.802;2023-03-14T22:04:31;3.08;;;1.50;;
52534;SDS011;38443;53.164;5.802;2023-03-14T22:07:04;4.72;;;1.98;;
52534;SDS011;38443;53.164;5.802;2023-03-14T22:09:34;6.55;;;1.90;;
52534;SDS011;38443;53.164;5.802;2023-03-14T22:12:02;5.85;;;2.17;;
52534;SDS011;38443;53.164;5.802;2023-03-14T22:16:53;6.28;;;2.10;;
52534;SDS011;38443;53.164;5.802;2023-03-14T22:21:45;8.35;;;2.30;;
52534;SDS011;38443;53.164;5.802;2023-03-14T22:26:37;6.78;;;2.08;;
52534;SDS011;38443;53.164;5.802;2023-03-14T22:31:27;11.27;;;2.70;;
52534;SDS011;38443;53.164;5.802;2023-03-14T22:33:53;9.88;;;2.25;;
52534;SDS011;38443;53.164;5.802;2023-03-14T22:38:43;5.93;;;2.50;;
52534;SDS011;38443;53.164;5.802;2023-03-14T22:43:34;8.00;;;2.13;;
52534;SDS011;38443;53.164;5.802;2023-03-14T22:46:00;11.23;;;2.50;;
52534;SDS011;38443;53.164;5.802;2023-03-14T22:48:26;6.07;;;2.22;;
52534;SDS011;38443;53.164;5.802;2023-03-14T22:53:17;9.57;;;2.53;;
52534;SDS011;38443;53.164;5.802;2023-03-14T22:58:07;9.48;;;2.20;;
52534;SDS011;38443;53.164;5.802;2023-03-14T23:02:58;7.18;;;2.10;;
52534;SDS011;38443;53.164;5.802;2023-03-14T23:07:49;4.30;;;2.10;;
52534;SDS011;38443;53.164;5.802;2023-03-14T23:12:40;10.10;;;1.95;;
52534;SDS011;38443;53.164;5.802;2023-03-14T23:15:09;4.47;;;2.72;;